createdAt,value
2022-08-09T00:00:44.454Z,1.70
2022-08-09T00:04:10.960Z,1.50
2022-08-09T00:07:12.507Z,1.40
2022-08-09T00:10:17.991Z,1.80
2022-08-09T00:13:24.695Z,1.20
2022-08-09T00:16:38.411Z,1.40
2022-08-09T00:19:42.305Z,1.80
2022-08-09T00:22:51.116Z,1.80
2022-08-09T00:25:54.903Z,1.30
2022-08-09T00:28:59.205Z,1.40
2022-08-09T00:32:03.304Z,1.30
2022-08-09T00:35:07.094Z,1.60
2022-08-09T00:39:02.852Z,1.60
2022-08-09T00:44:13.996Z,1.50
2022-08-09T00:45:35.192Z,1.20
2022-08-09T00:48:38.493Z,1.10
2022-08-09T00:51:54.597Z,1.10
2022-08-09T00:55:00.958Z,1.00
2022-08-09T00:58:31.925Z,1.50
2022-08-09T01:01:44.887Z,1.30
2022-08-09T01:05:13.878Z,1.10
2022-08-09T01:08:30.149Z,1.00
2022-08-09T01:11:53.141Z,1.00
2022-08-09T01:15:16.620Z,1.20
2022-08-09T01:18:30.494Z,1.20
2022-08-09T01:21:50.958Z,1.10
2022-08-09T01:25:12.596Z,1.00
2022-08-09T01:28:17.074Z,0.90
2022-08-09T01:32:29.188Z,1.20
2022-08-09T01:34:53.881Z,1.30
2022-08-09T01:38:08.291Z,1.00
2022-08-09T01:41:25.691Z,1.40
2022-08-09T01:44:30.838Z,1.30
2022-08-09T01:47:44.811Z,1.60
2022-08-09T01:50:54.794Z,1.30
2022-08-09T01:54:00.474Z,1.20
2022-08-09T01:57:12.198Z,1.60
2022-08-09T02:00:35.279Z,1.80
2022-08-09T02:03:43.090Z,1.60
2022-08-09T02:07:06.147Z,1.90
2022-08-09T02:10:29.846Z,1.20
2022-08-09T02:13:37.245Z,1.50
2022-08-09T02:17:00.092Z,1.50
2022-08-09T02:20:08.972Z,1.30
2022-08-09T02:23:23.938Z,1.30
2022-08-09T02:26:32.439Z,1.40
2022-08-09T02:29:44.412Z,1.20
2022-08-09T02:32:48.920Z,1.40
2022-08-09T02:36:02.838Z,1.70
2022-08-09T02:39:19.792Z,1.40
2022-08-09T02:42:31.442Z,1.50
2022-08-09T02:45:40.968Z,1.20
2022-08-09T02:48:47.299Z,1.50
2022-08-09T02:51:59.085Z,1.60
2022-08-09T02:55:20.255Z,1.60
2022-08-09T02:58:35.388Z,1.40
2022-08-09T03:01:42.813Z,1.70
2022-08-09T03:04:50.771Z,1.60
2022-08-09T03:07:55.606Z,1.40
2022-08-09T03:11:01.705Z,1.50
2022-08-09T03:14:05.978Z,1.60
2022-08-09T03:17:16.544Z,1.80
2022-08-09T03:20:24.560Z,1.40
2022-08-09T03:23:33.437Z,1.90
2022-08-09T03:26:45.054Z,1.60
2022-08-09T03:29:57.717Z,1.40
2022-08-09T03:33:18.574Z,1.50
2022-08-09T03:36:27.049Z,1.60
2022-08-09T03:39:38.071Z,1.70
2022-08-09T03:42:43.057Z,1.90
2022-08-09T03:46:09.841Z,1.70
2022-08-09T03:49:12.001Z,1.90
2022-08-09T03:52:22.503Z,2.00
2022-08-09T03:55:35.963Z,2.00
2022-08-09T03:58:45.097Z,1.50
2022-08-09T04:01:50.935Z,2.00
2022-08-09T04:04:55.953Z,1.90
2022-08-09T04:07:59.131Z,2.00
2022-08-09T04:11:03.433Z,2.00
2022-08-09T04:14:53.255Z,1.90
2022-08-09T04:17:32.402Z,2.10
2022-08-09T04:20:36.500Z,2.30
2022-08-09T04:23:39.469Z,2.70
2022-08-09T04:26:42.759Z,2.40
2022-08-09T04:29:49.716Z,2.00
2022-08-09T04:32:54.175Z,2.50
2022-08-09T04:35:57.396Z,2.30
2022-08-09T04:39:04.051Z,2.80
2022-08-09T04:42:09.328Z,2.50
2022-08-09T04:45:12.765Z,2.80
2022-08-09T04:48:16.146Z,3.10
2022-08-09T04:51:19.114Z,2.60
2022-08-09T04:54:23.315Z,2.90
2022-08-09T04:57:54.139Z,3.30
2022-08-09T05:00:50.543Z,3.20
2022-08-09T05:03:56.866Z,3.50
2022-08-09T05:07:01.921Z,3.50
2022-08-09T05:10:05.601Z,2.80
2022-08-09T05:13:08.632Z,2.90
2022-08-09T05:16:15.016Z,2.70
2022-08-09T05:19:24.418Z,2.40
2022-08-09T05:22:36.154Z,2.30
2022-08-09T05:25:52.394Z,2.40
2022-08-09T05:28:55.368Z,2.40
2022-08-09T05:32:02.837Z,2.00
2022-08-09T05:35:09.602Z,2.20
2022-08-09T05:38:12.679Z,2.20
2022-08-09T05:41:25.262Z,2.60
2022-08-09T05:44:32.251Z,2.50
2022-08-09T05:47:36.074Z,2.10
2022-08-09T05:51:14.179Z,1.90
2022-08-09T05:54:17.959Z,2.20
2022-08-09T05:57:25.025Z,1.90
2022-08-09T06:00:44.911Z,1.90
2022-08-09T06:03:58.055Z,1.90
2022-08-09T06:07:04.451Z,2.00
2022-08-09T06:10:08.195Z,2.10
2022-08-09T06:13:20.723Z,2.40
2022-08-09T06:16:24.035Z,2.60
2022-08-09T06:19:27.460Z,2.40
2022-08-09T06:22:31.320Z,2.20
2022-08-09T06:25:35.282Z,2.20
2022-08-09T06:28:38.235Z,2.00
2022-08-09T06:32:08.675Z,1.70
2022-08-09T06:35:06.314Z,1.70
2022-08-09T06:38:10.077Z,1.80
2022-08-09T06:41:19.065Z,1.70
2022-08-09T06:44:26.623Z,1.80
2022-08-09T06:47:39.428Z,1.80
2022-08-09T06:50:48.196Z,1.80
2022-08-09T06:53:51.077Z,1.90
2022-08-09T06:56:56.322Z,1.90
2022-08-09T07:00:49.991Z,1.70
2022-08-09T07:03:28.150Z,1.30
2022-08-09T07:06:53.456Z,1.30
2022-08-09T07:10:29.352Z,1.40
2022-08-09T07:13:45.306Z,1.20
2022-08-09T07:16:58.411Z,1.20
2022-08-09T07:20:02.239Z,1.30
2022-08-09T07:23:19.057Z,1.00
2022-08-09T07:26:23.329Z,1.00
2022-08-09T07:29:27.528Z,1.10
2022-08-09T07:32:42.460Z,1.30
2022-08-09T07:35:54.174Z,1.50
2022-08-09T07:39:01.047Z,1.20
2022-08-09T07:42:06.487Z,1.00
2022-08-09T07:45:22.796Z,1.50
2022-08-09T07:48:35.193Z,0.80
2022-08-09T07:52:04.683Z,0.90
2022-08-09T07:55:09.667Z,0.80
2022-08-09T07:58:14.438Z,0.80
2022-08-09T08:01:21.572Z,1.00
2022-08-09T08:04:37.367Z,0.80
2022-08-09T08:08:44.047Z,1.00
2022-08-09T08:12:11.321Z,0.80
2022-08-09T08:14:27.382Z,0.60
2022-08-09T08:17:52.172Z,1.10
2022-08-09T08:20:55.130Z,0.60
2022-08-09T08:24:00.922Z,0.80
2022-08-09T08:27:04.757Z,1.00
2022-08-09T08:30:20.045Z,0.70
2022-08-09T08:33:49.668Z,0.70
2022-08-09T08:37:01.285Z,0.90
2022-08-09T08:40:14.317Z,0.60
2022-08-09T08:43:27.160Z,0.70
2022-08-09T08:46:59.644Z,0.80
2022-08-09T08:50:04.428Z,0.90
2022-08-09T08:53:15.767Z,0.90
2022-08-09T08:56:28.401Z,0.70
2022-08-09T08:59:46.548Z,0.50
2022-08-09T09:02:52.839Z,0.70
2022-08-09T09:05:58.367Z,0.60
2022-08-09T09:09:21.029Z,0.60
2022-08-09T09:12:35.518Z,0.70
2022-08-09T09:15:39.223Z,0.90
2022-08-09T09:18:48.807Z,0.70
2022-08-09T09:22:15.994Z,0.70
2022-08-09T09:26:01.355Z,0.60
2022-08-09T09:29:11.032Z,0.80
2022-08-09T09:32:35.482Z,0.80
2022-08-09T09:36:01.947Z,0.90
2022-08-09T09:39:10.250Z,0.60
2022-08-09T09:42:29.687Z,0.60
2022-08-09T09:45:57.231Z,0.50
2022-08-09T09:49:19.170Z,0.70
2022-08-09T09:52:56.308Z,1.00
2022-08-09T09:56:05.367Z,0.70
2022-08-09T09:59:10.001Z,0.60
2022-08-09T10:02:14.367Z,0.80
2022-08-09T10:05:21.679Z,0.70
2022-08-09T10:08:30.179Z,0.80
2022-08-09T10:12:00.949Z,0.80
2022-08-09T10:15:06.566Z,0.80
2022-08-09T10:18:20.376Z,0.80
2022-08-09T10:21:25.394Z,0.70
2022-08-09T10:24:35.663Z,0.60
2022-08-09T10:27:56.321Z,0.50
2022-08-09T10:34:32.679Z,0.60
2022-08-09T10:37:38.415Z,0.80
2022-08-09T10:40:50.046Z,0.60
2022-08-09T10:43:59.500Z,0.80
2022-08-09T10:48:16.189Z,1.10
2022-08-09T10:51:10.263Z,1.10
2022-08-09T10:54:14.783Z,0.90
2022-08-09T10:57:17.776Z,0.80
2022-08-09T11:00:41.812Z,0.90
2022-08-09T11:04:27.710Z,1.10
2022-08-09T11:10:59.776Z,0.90
2022-08-09T11:14:31.766Z,0.80
2022-08-09T11:17:45.923Z,1.00
2022-08-09T11:20:49.961Z,1.10
2022-08-09T11:23:59.966Z,1.30
2022-08-09T11:28:02.872Z,1.10
2022-08-09T11:31:43.374Z,1.40
2022-08-09T11:34:53.719Z,1.30
2022-08-09T11:38:32.688Z,1.20
2022-08-09T11:41:38.493Z,1.40
2022-08-09T11:44:45.684Z,1.30
2022-08-09T11:47:54.634Z,1.10
2022-08-09T11:52:53.852Z,1.00
2022-08-09T11:54:28.668Z,1.20
2022-08-09T11:57:47.821Z,1.00
2022-08-09T12:01:37.279Z,1.10
2022-08-09T12:04:37.379Z,1.10
2022-08-09T12:07:42.559Z,1.60
2022-08-09T12:10:49.650Z,1.40
2022-08-09T12:14:10.258Z,1.30
2022-08-09T12:17:28.189Z,1.10
2022-08-09T12:20:42.397Z,1.30
2022-08-09T12:23:56.539Z,1.10
2022-08-09T12:29:15.497Z,1.10
2022-08-09T12:30:44.330Z,1.00
2022-08-09T12:33:58.642Z,0.80
2022-08-09T12:37:24.173Z,1.50
2022-08-09T12:40:30.647Z,0.80
2022-08-09T12:44:05.469Z,1.20
2022-08-09T12:47:01.096Z,0.90
2022-08-09T12:50:19.706Z,0.80
2022-08-09T12:53:44.699Z,1.00
2022-08-09T12:56:54.153Z,0.90
2022-08-09T13:00:12.466Z,1.10
2022-08-09T13:03:24.435Z,0.90
2022-08-09T13:06:35.721Z,0.90
2022-08-09T13:09:41.028Z,0.80
2022-08-09T13:13:09.507Z,1.30
2022-08-09T13:16:17.539Z,1.10
2022-08-09T13:20:07.088Z,0.70
2022-08-09T13:23:00.960Z,0.90
2022-08-09T13:26:05.659Z,1.00
2022-08-09T13:29:18.044Z,1.00
2022-08-09T13:32:28.736Z,1.10
2022-08-09T13:35:34.478Z,0.90
2022-08-09T13:38:54.927Z,1.10
2022-08-09T13:42:11.906Z,1.00
2022-08-09T13:45:16.920Z,0.90
2022-08-09T13:48:20.357Z,1.00
2022-08-09T13:51:24.748Z,1.00
2022-08-09T13:54:30.490Z,1.10
2022-08-09T13:57:42.922Z,1.40
2022-08-09T14:00:49.966Z,1.00
2022-08-09T14:04:02.225Z,1.00
2022-08-09T14:07:07.697Z,1.00
2022-08-09T14:10:17.179Z,1.00
2022-08-09T14:14:22.412Z,1.10
2022-08-09T14:16:56.937Z,0.90
2022-08-09T14:20:02.386Z,0.90
2022-08-09T14:23:07.180Z,1.10
2022-08-09T14:26:11.191Z,1.20
2022-08-09T14:29:25.458Z,1.30
2022-08-09T14:32:40.767Z,0.80
2022-08-09T14:35:52.965Z,0.90
2022-08-09T14:38:57.344Z,0.90
2022-08-09T14:42:00.852Z,1.00
2022-08-09T14:46:40.279Z,1.00
2022-08-09T14:48:33.278Z,0.90
2022-08-09T14:51:36.016Z,1.10
2022-08-09T14:54:45.582Z,1.00
2022-08-09T14:57:49.650Z,1.00
2022-08-09T15:00:52.908Z,1.20
2022-08-09T15:04:00.781Z,1.20
2022-08-09T15:07:04.695Z,1.30
2022-08-09T15:10:14.242Z,1.10
2022-08-09T15:13:19.030Z,1.00
2022-08-09T15:16:21.885Z,1.10
2022-08-09T15:19:26.149Z,1.10
2022-08-09T15:22:29.288Z,1.10
2022-08-09T15:25:41.169Z,1.30
2022-08-09T15:28:44.716Z,1.10
2022-08-09T15:31:58.018Z,1.00
2022-08-09T15:35:01.458Z,1.00
2022-08-09T15:38:11.056Z,1.00
2022-08-09T15:41:21.985Z,1.10
2022-08-09T15:44:25.899Z,1.00
2022-08-09T15:47:51.478Z,0.90
2022-08-09T15:50:55.924Z,1.00
2022-08-09T15:54:03.800Z,1.20
2022-08-09T15:57:11.315Z,1.00
2022-08-09T16:00:25.750Z,1.10
2022-08-09T16:03:38.171Z,1.20
2022-08-09T16:06:50.568Z,1.10
2022-08-09T16:10:02.158Z,1.00
2022-08-09T16:13:21.067Z,0.90
2022-08-09T16:16:32.958Z,1.00
2022-08-09T16:19:49.355Z,0.90
2022-08-09T16:23:01.378Z,0.90
2022-08-09T16:26:05.206Z,1.00
2022-08-09T16:29:37.969Z,1.10
2022-08-09T16:33:04.241Z,1.00
2022-08-09T16:36:11.781Z,1.00
2022-08-09T16:39:17.738Z,1.00
2022-08-09T16:42:34.158Z,1.20
2022-08-09T16:45:44.304Z,1.30
2022-08-09T16:48:53.208Z,1.10
2022-08-09T16:51:58.684Z,1.30
2022-08-09T16:55:01.773Z,1.00
2022-08-09T16:58:08.852Z,1.00
2022-08-09T17:01:13.356Z,1.10
2022-08-09T17:04:28.431Z,0.90
2022-08-09T17:08:45.319Z,1.10
2022-08-09T17:10:54.555Z,0.90
2022-08-09T17:14:01.228Z,1.10
2022-08-09T17:17:17.274Z,1.00
2022-08-09T17:20:37.374Z,1.10
2022-08-09T17:24:21.066Z,0.80
2022-08-09T17:27:06.765Z,1.00
2022-08-09T17:30:19.839Z,1.30
2022-08-09T17:33:23.508Z,0.90
2022-08-09T17:36:26.845Z,1.00
2022-08-09T17:39:48.501Z,1.50
2022-08-09T17:42:59.548Z,1.50
2022-08-09T17:46:14.082Z,1.50
2022-08-09T17:49:21.654Z,1.30
2022-08-09T17:52:26.973Z,1.10
2022-08-09T17:55:47.432Z,1.30
2022-08-09T17:58:55.296Z,1.00
2022-08-09T18:02:12.765Z,1.50
2022-08-09T18:05:22.735Z,1.40
2022-08-09T18:08:32.498Z,1.40
2022-08-09T18:12:05.205Z,1.30
2022-08-09T18:16:05.380Z,1.20
2022-08-09T18:20:54.500Z,1.10
2022-08-09T18:22:33.735Z,1.80
2022-08-09T18:25:52.478Z,2.60
2022-08-09T18:30:38.837Z,1.80
2022-08-09T18:32:25.586Z,1.50
2022-08-09T18:35:58.255Z,1.60
2022-08-09T18:39:00.871Z,1.70
2022-08-09T18:42:08.152Z,1.90
2022-08-09T18:46:44.979Z,1.80
2022-08-09T18:48:37.029Z,1.60
2022-08-09T18:51:54.965Z,1.60
2022-08-09T18:55:01.359Z,1.80
2022-08-09T18:58:05.286Z,1.50
2022-08-09T19:01:10.838Z,1.50
2022-08-09T19:04:16.211Z,2.70
2022-08-09T19:08:03.813Z,1.70
2022-08-09T19:11:07.425Z,1.60
2022-08-09T19:14:16.055Z,1.60
2022-08-09T19:17:31.190Z,1.60
2022-08-09T19:20:38.844Z,1.40
2022-08-09T19:24:35.889Z,1.70
2022-08-09T19:27:08.747Z,1.70
2022-08-09T19:30:24.744Z,10.90
2022-08-09T19:33:32.803Z,6.10
2022-08-09T19:36:37.311Z,3.50
2022-08-09T19:40:03.810Z,2.90
2022-08-09T19:43:16.278Z,2.60
2022-08-09T19:46:35.553Z,2.60
2022-08-09T19:50:09.775Z,3.00
2022-08-09T19:53:06.260Z,2.10
2022-08-09T19:56:15.721Z,2.50
2022-08-09T19:59:57.416Z,1.90
2022-08-09T20:04:23.812Z,1.70
2022-08-09T20:06:22.423Z,1.80
2022-08-09T20:09:44.880Z,2.00
2022-08-09T20:12:49.729Z,1.70
2022-08-09T20:16:34.844Z,2.20
2022-08-09T20:19:48.669Z,2.20
2022-08-09T20:22:57.511Z,2.40
2022-08-09T20:26:03.492Z,2.20
2022-08-09T20:29:18.935Z,2.60
2022-08-09T20:32:33.881Z,2.50
2022-08-09T20:35:37.544Z,2.50
2022-08-09T20:39:18.712Z,1.90
2022-08-09T20:42:06.211Z,2.40
2022-08-09T20:48:37.663Z,1.90
2022-08-09T20:51:42.238Z,1.90
2022-08-09T20:54:52.598Z,1.90
2022-08-09T20:58:05.399Z,1.90
2022-08-09T21:01:34.590Z,2.10
2022-08-09T21:05:52.669Z,2.00
2022-08-09T21:08:08.012Z,2.60
2022-08-09T21:14:40.167Z,2.30
2022-08-09T21:18:23.814Z,2.20
2022-08-09T21:21:17.380Z,1.80
2022-08-09T21:24:28.453Z,2.00
2022-08-09T21:27:52.284Z,1.80
2022-08-09T21:30:59.335Z,1.80
2022-08-09T21:34:02.716Z,2.10
2022-08-09T21:37:18.292Z,1.90
2022-08-09T21:40:30.469Z,1.60
2022-08-09T21:43:56.732Z,1.80
2022-08-09T21:46:57.439Z,1.70
2022-08-09T21:50:01.335Z,1.80
2022-08-09T21:53:15.698Z,1.70
2022-08-09T21:56:34.064Z,1.80
2022-08-09T21:59:48.016Z,1.90
2022-08-09T22:02:58.978Z,1.90
2022-08-09T22:06:03.777Z,2.20
2022-08-09T22:09:11.030Z,2.10
2022-08-09T22:12:24.511Z,1.70
2022-08-09T22:15:34.972Z,1.80
2022-08-09T22:18:53.640Z,1.80
2022-08-09T22:21:57.832Z,1.90
2022-08-09T22:26:06.845Z,2.30
2022-08-09T22:28:32.384Z,1.90
2022-08-09T22:31:37.584Z,1.90
2022-08-09T22:34:41.753Z,1.80
2022-08-09T22:37:44.729Z,2.10
2022-08-09T22:40:49.175Z,2.10
2022-08-09T22:44:04.256Z,2.10
2022-08-09T22:48:11.472Z,2.00
2022-08-09T22:50:32.532Z,2.10
2022-08-09T22:53:58.647Z,2.10
2022-08-09T22:56:58.837Z,2.30
2022-08-09T23:00:01.918Z,1.80
2022-08-09T23:03:12.621Z,1.90
2022-08-09T23:06:29.868Z,2.10
2022-08-09T23:09:40.307Z,1.90
2022-08-09T23:12:44.305Z,2.10
2022-08-09T23:16:02.957Z,2.10
2022-08-09T23:19:07.743Z,2.10
2022-08-09T23:22:10.717Z,1.90
2022-08-09T23:25:13.688Z,2.10
2022-08-09T23:28:18.098Z,1.90
2022-08-09T23:31:21.072Z,2.00
2022-08-09T23:34:24.248Z,2.20
2022-08-09T23:37:30.114Z,2.00
2022-08-09T23:40:33.463Z,2.30
2022-08-09T23:43:36.437Z,2.20
2022-08-09T23:46:39.413Z,2.30
2022-08-09T23:49:42.687Z,2.10
2022-08-09T23:52:45.661Z,2.40
2022-08-09T23:55:55.674Z,2.40
2022-08-09T23:59:00.200Z,1.90
